sensor_id;sensor_type;location;lat;lon;timestamp;temperature;humidity
41928;DHT22;27616;51.420;6.788;2023-02-23T00:01:40;9.20;99.90
41928;DHT22;27616;51.420;6.788;2023-02-23T00:04:07;9.20;99.90
41928;DHT22;27616;51.420;6.788;2023-02-23T00:06:34;9.20;99.90
41928;DHT22;27616;51.420;6.788;2023-02-23T00:09:01;9.20;99.90
41928;DHT22;27616;51.420;6.788;2023-02-23T00:11:54;9.20;99.90
41928;DHT22;27616;51.420;6.788;2023-02-23T00:14:22;9.20;99.90
41928;DHT22;27616;51.420;6.788;2023-02-23T00:16:49;9.20;99.90
41928;DHT22;27616;51.420;6.788;2023-02-23T00:19:14;9.20;99.90
41928;DHT22;27616;51.420;6.788;2023-02-23T00:21:40;9.10;99.90
41928;DHT22;27616;51.420;6.788;2023-02-23T00:24:11;9.20;99.90
41928;DHT22;27616;51.420;6.788;2023-02-23T00:26:39;9.10;99.90
41928;DHT22;27616;51.420;6.788;2023-02-23T00:29:27;9.10;99.90
41928;DHT22;27616;51.420;6.788;2023-02-23T00:31:53;9.00;99.90
41928;DHT22;27616;51.420;6.788;2023-02-23T00:34:20;9.00;99.90
41928;DHT22;27616;51.420;6.788;2023-02-23T00:36:50;9.00;99.90
41928;DHT22;27616;51.420;6.788;2023-02-23T00:39:16;9.00;99.90
41928;DHT22;27616;51.420;6.788;2023-02-23T00:41:44;8.90;99.90
41928;DHT22;27616;51.420;6.788;2023-02-23T00:44:10;8.90;99.90
41928;DHT22;27616;51.420;6.788;2023-02-23T00:46:36;8.90;99.90
41928;DHT22;27616;51.420;6.788;2023-02-23T00:49:02;8.90;99.90
41928;DHT22;27616;51.420;6.788;2023-02-23T00:51:29;8.90;99.90
41928;DHT22;27616;51.420;6.788;2023-02-23T00:53:56;8.90;99.90
41928;DHT22;27616;51.420;6.788;2023-02-23T00:56:22;8.90;99.90
41928;DHT22;27616;51.420;6.788;2023-02-23T00:58:48;8.80;99.90
41928;DHT22;27616;51.420;6.788;2023-02-23T01:01:15;8.90;99.90
41928;DHT22;27616;51.420;6.788;2023-02-23T01:03:42;8.90;99.90
41928;DHT22;27616;51.420;6.788;2023-02-23T01:06:11;8.90;99.90
41928;DHT22;27616;51.420;6.788;2023-02-23T01:08:40;8.90;99.90
41928;DHT22;27616;51.420;6.788;2023-02-23T01:11:08;8.90;99.90
41928;DHT22;27616;51.420;6.788;2023-02-23T01:13:35;8.80;99.90
41928;DHT22;27616;51.420;6.788;2023-02-23T01:16:10;8.90;99.90
41928;DHT22;27616;51.420;6.788;2023-02-23T01:18:37;8.90;99.90
41928;DHT22;27616;51.420;6.788;2023-02-23T01:21:03;8.90;99.90
41928;DHT22;27616;51.420;6.788;2023-02-23T01:23:32;8.90;99.90
41928;DHT22;27616;51.420;6.788;2023-02-23T01:25:58;8.90;99.90
41928;DHT22;27616;51.420;6.788;2023-02-23T01:28:24;9.00;99.90
41928;DHT22;27616;51.420;6.788;2023-02-23T01:30:50;9.00;99.90
41928;DHT22;27616;51.420;6.788;2023-02-23T01:33:16;9.00;99.90
41928;DHT22;27616;51.420;6.788;2023-02-23T01:35:42;9.00;99.90
41928;DHT22;27616;51.420;6.788;2023-02-23T01:38:09;9.00;99.90
41928;DHT22;27616;51.420;6.788;2023-02-23T01:40:35;9.00;99.90
41928;DHT22;27616;51.420;6.788;2023-02-23T01:43:15;9.00;99.90
41928;DHT22;27616;51.420;6.788;2023-02-23T01:45:43;9.00;99.90
41928;DHT22;27616;51.420;6.788;2023-02-23T01:48:30;9.00;99.90
41928;DHT22;27616;51.420;6.788;2023-02-23T01:53:35;8.90;99.90
41928;DHT22;27616;51.420;6.788;2023-02-23T01:56:10;9.00;99.90
41928;DHT22;27616;51.420;6.788;2023-02-23T01:58:44;8.90;99.90
41928;DHT22;27616;51.420;6.788;2023-02-23T02:01:12;8.90;99.90
41928;DHT22;27616;51.420;6.788;2023-02-23T02:03:44;8.90;99.90
41928;DHT22;27616;51.420;6.788;2023-02-23T02:06:13;9.00;99.90
41928;DHT22;27616;51.420;6.788;2023-02-23T02:08:44;9.00;99.90
41928;DHT22;27616;51.420;6.788;2023-02-23T02:11:16;9.00;99.90
41928;DHT22;27616;51.420;6.788;2023-02-23T02:17:10;9.00;99.90
41928;DHT22;27616;51.420;6.788;2023-02-23T02:19:46;8.90;99.90
41928;DHT22;27616;51.420;6.788;2023-02-23T02:41:14;8.90;99.90
41928;DHT22;27616;51.420;6.788;2023-02-23T02:43:54;8.90;99.90
41928;DHT22;27616;51.420;6.788;2023-02-23T02:46:29;8.90;99.90
41928;DHT22;27616;51.420;6.788;2023-02-23T02:49:07;8.80;99.90
41928;DHT22;27616;51.420;6.788;2023-02-23T02:51:47;8.90;99.90
41928;DHT22;27616;51.420;6.788;2023-02-23T02:56:41;8.80;99.90
41928;DHT22;27616;51.420;6.788;2023-02-23T02:59:13;8.90;99.90
41928;DHT22;27616;51.420;6.788;2023-02-23T03:01:58;8.90;99.90
41928;DHT22;27616;51.420;6.788;2023-02-23T03:04:42;8.90;99.90
41928;DHT22;27616;51.420;6.788;2023-02-23T03:07:39;8.90;99.90
41928;DHT22;27616;51.420;6.788;2023-02-23T03:11:03;8.90;99.90
41928;DHT22;27616;51.420;6.788;2023-02-23T03:20:28;8.80;99.90
41928;DHT22;27616;51.420;6.788;2023-02-23T03:26:38;8.80;99.90
41928;DHT22;27616;51.420;6.788;2023-02-23T03:29:57;8.80;99.90
41928;DHT22;27616;51.420;6.788;2023-02-23T03:32:53;8.70;99.90
41928;DHT22;27616;51.420;6.788;2023-02-23T03:35:47;8.70;99.90
41928;DHT22;27616;51.420;6.788;2023-02-23T03:38:41;8.70;99.90
41928;DHT22;27616;51.420;6.788;2023-02-23T03:41:29;8.70;99.90
41928;DHT22;27616;51.420;6.788;2023-02-23T03:44:19;8.70;99.90
41928;DHT22;27616;51.420;6.788;2023-02-23T03:47:08;8.70;99.90
41928;DHT22;27616;51.420;6.788;2023-02-23T03:49:55;8.70;99.90
41928;DHT22;27616;51.420;6.788;2023-02-23T03:52:49;8.70;99.90
41928;DHT22;27616;51.420;6.788;2023-02-23T03:55:38;8.70;99.90
41928;DHT22;27616;51.420;6.788;2023-02-23T03:58:31;8.70;99.90
41928;DHT22;27616;51.420;6.788;2023-02-23T04:01:19;8.70;99.90
41928;DHT22;27616;51.420;6.788;2023-02-23T04:04:06;8.70;99.90
41928;DHT22;27616;51.420;6.788;2023-02-23T04:06:55;8.70;99.90
41928;DHT22;27616;51.420;6.788;2023-02-23T04:09:40;8.70;99.90
41928;DHT22;27616;51.420;6.788;2023-02-23T04:15:32;8.70;99.90
41928;DHT22;27616;51.420;6.788;2023-02-23T04:18:03;8.70;99.90
41928;DHT22;27616;51.420;6.788;2023-02-23T04:20:29;8.70;99.90
41928;DHT22;27616;51.420;6.788;2023-02-23T04:22:54;8.70;99.90
41928;DHT22;27616;51.420;6.788;2023-02-23T04:25:20;8.60;99.90
41928;DHT22;27616;51.420;6.788;2023-02-23T04:27:51;8.60;99.90
41928;DHT22;27616;51.420;6.788;2023-02-23T04:30:17;8.60;99.90
41928;DHT22;27616;51.420;6.788;2023-02-23T04:32:44;8.60;99.90
41928;DHT22;27616;51.420;6.788;2023-02-23T04:35:12;8.60;99.90
41928;DHT22;27616;51.420;6.788;2023-02-23T04:37:38;8.60;99.90
41928;DHT22;27616;51.420;6.788;2023-02-23T04:40:05;8.60;99.90
41928;DHT22;27616;51.420;6.788;2023-02-23T04:42:31;8.60;99.90
41928;DHT22;27616;51.420;6.788;2023-02-23T04:44:57;8.60;99.90
41928;DHT22;27616;51.420;6.788;2023-02-23T04:47:23;8.60;99.90
41928;DHT22;27616;51.420;6.788;2023-02-23T04:49:49;8.60;99.90
41928;DHT22;27616;51.420;6.788;2023-02-23T04:52:15;8.60;99.90
41928;DHT22;27616;51.420;6.788;2023-02-23T04:54:41;8.60;99.90
41928;DHT22;27616;51.420;6.788;2023-02-23T04:57:08;8.60;99.90
41928;DHT22;27616;51.420;6.788;2023-02-23T04:59:34;8.60;99.90
41928;DHT22;27616;51.420;6.788;2023-02-23T05:02:00;8.60;99.90
41928;DHT22;27616;51.420;6.788;2023-02-23T05:04:26;8.60;99.90
41928;DHT22;27616;51.420;6.788;2023-02-23T05:06:51;8.60;99.90
41928;DHT22;27616;51.420;6.788;2023-02-23T05:09:17;8.60;99.90
41928;DHT22;27616;51.420;6.788;2023-02-23T05:11:43;8.60;99.90
41928;DHT22;27616;51.420;6.788;2023-02-23T05:14:09;8.60;99.90
41928;DHT22;27616;51.420;6.788;2023-02-23T05:16:37;8.60;99.90
41928;DHT22;27616;51.420;6.788;2023-02-23T05:19:04;8.50;99.90
41928;DHT22;27616;51.420;6.788;2023-02-23T05:21:30;8.50;99.90
41928;DHT22;27616;51.420;6.788;2023-02-23T05:23:55;8.50;99.90
41928;DHT22;27616;51.420;6.788;2023-02-23T05:26:21;8.50;99.90
41928;DHT22;27616;51.420;6.788;2023-02-23T05:28:47;8.50;99.90
41928;DHT22;27616;51.420;6.788;2023-02-23T05:31:13;8.40;99.90
41928;DHT22;27616;51.420;6.788;2023-02-23T05:33:39;8.40;99.90
41928;DHT22;27616;51.420;6.788;2023-02-23T05:36:10;8.40;99.90
41928;DHT22;27616;51.420;6.788;2023-02-23T05:38:36;8.30;99.90
41928;DHT22;27616;51.420;6.788;2023-02-23T05:41:10;8.30;99.90
41928;DHT22;27616;51.420;6.788;2023-02-23T05:43:36;8.40;99.90
41928;DHT22;27616;51.420;6.788;2023-02-23T05:46:13;8.30;99.90
41928;DHT22;27616;51.420;6.788;2023-02-23T05:48:39;8.30;99.90
41928;DHT22;27616;51.420;6.788;2023-02-23T05:51:07;8.30;99.90
41928;DHT22;27616;51.420;6.788;2023-02-23T05:53:34;8.30;99.90
41928;DHT22;27616;51.420;6.788;2023-02-23T05:56:04;8.20;99.90
41928;DHT22;27616;51.420;6.788;2023-02-23T05:58:30;8.20;99.90
41928;DHT22;27616;51.420;6.788;2023-02-23T06:00:56;8.30;99.90
41928;DHT22;27616;51.420;6.788;2023-02-23T06:03:22;8.20;99.90
41928;DHT22;27616;51.420;6.788;2023-02-23T06:05:56;8.20;99.90
41928;DHT22;27616;51.420;6.788;2023-02-23T06:08:24;8.20;99.90
41928;DHT22;27616;51.420;6.788;2023-02-23T06:10:50;8.20;99.90
41928;DHT22;27616;51.420;6.788;2023-02-23T06:13:16;8.20;99.90
41928;DHT22;27616;51.420;6.788;2023-02-23T06:15:42;8.20;99.90
41928;DHT22;27616;51.420;6.788;2023-02-23T06:18:08;8.20;99.90
41928;DHT22;27616;51.420;6.788;2023-02-23T06:20:34;8.20;99.90
41928;DHT22;27616;51.420;6.788;2023-02-23T06:23:00;8.20;99.90
41928;DHT22;27616;51.420;6.788;2023-02-23T06:25:26;8.30;99.90
41928;DHT22;27616;51.420;6.788;2023-02-23T06:27:52;8.20;99.90
41928;DHT22;27616;51.420;6.788;2023-02-23T06:30:19;8.20;99.90
41928;DHT22;27616;51.420;6.788;2023-02-23T06:32:45;8.30;99.90
41928;DHT22;27616;51.420;6.788;2023-02-23T06:35:14;8.30;99.90
41928;DHT22;27616;51.420;6.788;2023-02-23T06:37:40;8.20;99.90
41928;DHT22;27616;51.420;6.788;2023-02-23T06:40:06;8.20;99.90
41928;DHT22;27616;51.420;6.788;2023-02-23T06:42:32;8.20;99.90
41928;DHT22;27616;51.420;6.788;2023-02-23T06:45:03;8.20;99.90
41928;DHT22;27616;51.420;6.788;2023-02-23T06:47:29;8.10;99.90
41928;DHT22;27616;51.420;6.788;2023-02-23T06:49:55;8.10;99.90
41928;DHT22;27616;51.420;6.788;2023-02-23T06:52:21;8.10;99.90
41928;DHT22;27616;51.420;6.788;2023-02-23T06:54:48;8.10;99.90
41928;DHT22;27616;51.420;6.788;2023-02-23T06:57:14;8.20;99.90
41928;DHT22;27616;51.420;6.788;2023-02-23T06:59:41;8.20;99.90
41928;DHT22;27616;51.420;6.788;2023-02-23T07:02:10;8.20;99.90
41928;DHT22;27616;51.420;6.788;2023-02-23T07:04:36;8.20;99.90
41928;DHT22;27616;51.420;6.788;2023-02-23T07:07:02;8.20;99.90
41928;DHT22;27616;51.420;6.788;2023-02-23T07:09:28;8.10;99.90
41928;DHT22;27616;51.420;6.788;2023-02-23T07:11:53;8.20;99.90
41928;DHT22;27616;51.420;6.788;2023-02-23T07:14:19;8.20;99.90
41928;DHT22;27616;51.420;6.788;2023-02-23T07:16:45;8.20;99.90
41928;DHT22;27616;51.420;6.788;2023-02-23T07:19:11;8.20;99.90
41928;DHT22;27616;51.420;6.788;2023-02-23T07:21:36;8.20;99.90
41928;DHT22;27616;51.420;6.788;2023-02-23T07:24:02;8.20;99.90
41928;DHT22;27616;51.420;6.788;2023-02-23T07:26:32;8.20;99.90
41928;DHT22;27616;51.420;6.788;2023-02-23T07:28:58;8.10;99.90
41928;DHT22;27616;51.420;6.788;2023-02-23T07:31:24;8.20;99.90
41928;DHT22;27616;51.420;6.788;2023-02-23T07:33:51;8.20;99.90
41928;DHT22;27616;51.420;6.788;2023-02-23T07:36:20;8.20;99.90
41928;DHT22;27616;51.420;6.788;2023-02-23T07:38:45;8.10;99.90
41928;DHT22;27616;51.420;6.788;2023-02-23T07:41:11;8.10;99.90
41928;DHT22;27616;51.420;6.788;2023-02-23T07:43:37;8.10;99.90
41928;DHT22;27616;51.420;6.788;2023-02-23T07:46:03;8.10;99.90
41928;DHT22;27616;51.420;6.788;2023-02-23T07:48:29;8.10;99.90
41928;DHT22;27616;51.420;6.788;2023-02-23T07:50:54;8.00;99.90
41928;DHT22;27616;51.420;6.788;2023-02-23T07:53:20;8.00;99.90
41928;DHT22;27616;51.420;6.788;2023-02-23T07:55:55;8.00;99.90
41928;DHT22;27616;51.420;6.788;2023-02-23T07:58:20;8.00;99.90
41928;DHT22;27616;51.420;6.788;2023-02-23T08:00:46;8.00;99.90
41928;DHT22;27616;51.420;6.788;2023-02-23T08:03:12;8.00;99.90
41928;DHT22;27616;51.420;6.788;2023-02-23T08:05:37;8.00;99.90
41928;DHT22;27616;51.420;6.788;2023-02-23T08:08:04;8.10;99.90
41928;DHT22;27616;51.420;6.788;2023-02-23T08:10:30;8.00;99.90
41928;DHT22;27616;51.420;6.788;2023-02-23T08:12:57;8.10;99.90
41928;DHT22;27616;51.420;6.788;2023-02-23T08:15:23;8.20;99.90
41928;DHT22;27616;51.420;6.788;2023-02-23T08:17:49;8.10;99.90
41928;DHT22;27616;51.420;6.788;2023-02-23T08:20:15;8.20;99.90
41928;DHT22;27616;51.420;6.788;2023-02-23T08:22:41;8.20;99.90
41928;DHT22;27616;51.420;6.788;2023-02-23T08:25:08;8.20;99.90
41928;DHT22;27616;51.420;6.788;2023-02-23T08:27:35;8.20;99.90
41928;DHT22;27616;51.420;6.788;2023-02-23T08:30:01;8.20;99.90
41928;DHT22;27616;51.420;6.788;2023-02-23T08:32:33;8.30;99.90
41928;DHT22;27616;51.420;6.788;2023-02-23T08:35:02;8.30;99.90
41928;DHT22;27616;51.420;6.788;2023-02-23T08:37:28;8.30;99.90
41928;DHT22;27616;51.420;6.788;2023-02-23T08:39:55;8.30;99.90
41928;DHT22;27616;51.420;6.788;2023-02-23T08:42:21;8.40;99.90
41928;DHT22;27616;51.420;6.788;2023-02-23T08:44:46;8.50;99.90
41928;DHT22;27616;51.420;6.788;2023-02-23T08:47:14;8.50;99.90
41928;DHT22;27616;51.420;6.788;2023-02-23T08:49:48;8.50;99.90
41928;DHT22;27616;51.420;6.788;2023-02-23T08:52:13;8.60;99.90
41928;DHT22;27616;51.420;6.788;2023-02-23T08:54:39;8.60;99.90
41928;DHT22;27616;51.420;6.788;2023-02-23T08:57:05;8.70;99.90
41928;DHT22;27616;51.420;6.788;2023-02-23T08:59:31;8.60;99.90
41928;DHT22;27616;51.420;6.788;2023-02-23T09:01:56;8.50;99.90
41928;DHT22;27616;51.420;6.788;2023-02-23T09:04:22;8.60;99.90
41928;DHT22;27616;51.420;6.788;2023-02-23T09:06:48;8.70;99.90
41928;DHT22;27616;51.420;6.788;2023-02-23T09:09:15;8.70;99.90
41928;DHT22;27616;51.420;6.788;2023-02-23T09:11:41;8.70;99.90
41928;DHT22;27616;51.420;6.788;2023-02-23T09:14:07;8.60;99.90
41928;DHT22;27616;51.420;6.788;2023-02-23T09:16:34;8.50;99.90
41928;DHT22;27616;51.420;6.788;2023-02-23T09:19:01;8.50;99.90
41928;DHT22;27616;51.420;6.788;2023-02-23T09:21:27;8.50;99.90
41928;DHT22;27616;51.420;6.788;2023-02-23T09:23:54;8.40;99.90
41928;DHT22;27616;51.420;6.788;2023-02-23T09:26:21;8.30;99.90
41928;DHT22;27616;51.420;6.788;2023-02-23T09:28:48;8.30;99.90
41928;DHT22;27616;51.420;6.788;2023-02-23T09:31:17;8.30;99.90
41928;DHT22;27616;51.420;6.788;2023-02-23T09:33:43;8.40;99.90
41928;DHT22;27616;51.420;6.788;2023-02-23T09:36:12;8.50;99.90
41928;DHT22;27616;51.420;6.788;2023-02-23T09:38:42;8.60;99.90
41928;DHT22;27616;51.420;6.788;2023-02-23T09:43:55;8.80;99.90
41928;DHT22;27616;51.420;6.788;2023-02-23T09:46:35;8.80;99.90
41928;DHT22;27616;51.420;6.788;2023-02-23T09:49:05;8.80;99.90
41928;DHT22;27616;51.420;6.788;2023-02-23T09:51:39;8.80;99.90
41928;DHT22;27616;51.420;6.788;2023-02-23T09:54:10;8.90;99.90
41928;DHT22;27616;51.420;6.788;2023-02-23T09:56:46;9.00;99.90
41928;DHT22;27616;51.420;6.788;2023-02-23T09:59:14;9.00;99.90
41928;DHT22;27616;51.420;6.788;2023-02-23T10:04:42;8.90;99.90
41928;DHT22;27616;51.420;6.788;2023-02-23T10:07:36;8.90;99.90
41928;DHT22;27616;51.420;6.788;2023-02-23T10:10:35;8.70;99.90
41928;DHT22;27616;51.420;6.788;2023-02-23T10:15:43;8.60;99.90
41928;DHT22;27616;51.420;6.788;2023-02-23T10:23:37;8.70;99.90
41928;DHT22;27616;51.420;6.788;2023-02-23T10:26:06;8.70;99.90
41928;DHT22;27616;51.420;6.788;2023-02-23T10:28:35;8.70;99.90
41928;DHT22;27616;51.420;6.788;2023-02-23T10:31:03;8.70;99.90
41928;DHT22;27616;51.420;6.788;2023-02-23T10:33:35;8.70;99.90
41928;DHT22;27616;51.420;6.788;2023-02-23T10:36:15;8.70;99.90
41928;DHT22;27616;51.420;6.788;2023-02-23T10:38:41;8.60;99.90
41928;DHT22;27616;51.420;6.788;2023-02-23T10:41:08;8.60;99.90
41928;DHT22;27616;51.420;6.788;2023-02-23T10:43:34;8.60;99.90
41928;DHT22;27616;51.420;6.788;2023-02-23T10:46:00;8.60;99.90
41928;DHT22;27616;51.420;6.788;2023-02-23T10:48:33;8.60;99.90
41928;DHT22;27616;51.420;6.788;2023-02-23T10:51:00;8.60;99.90
41928;DHT22;27616;51.420;6.788;2023-02-23T10:53:35;8.70;99.90
41928;DHT22;27616;51.420;6.788;2023-02-23T10:56:12;8.80;99.90
41928;DHT22;27616;51.420;6.788;2023-02-23T10:58:44;8.70;99.90
41928;DHT22;27616;51.420;6.788;2023-02-23T11:01:54;8.60;99.90
41928;DHT22;27616;51.420;6.788;2023-02-23T11:06:42;8.50;99.90
41928;DHT22;27616;51.420;6.788;2023-02-23T11:09:29;8.40;99.90
41928;DHT22;27616;51.420;6.788;2023-02-23T11:11:56;8.40;99.90
41928;DHT22;27616;51.420;6.788;2023-02-23T11:14:27;8.30;99.90
41928;DHT22;27616;51.420;6.788;2023-02-23T11:16:56;8.20;99.90
41928;DHT22;27616;51.420;6.788;2023-02-23T11:19:42;8.20;99.90
41928;DHT22;27616;51.420;6.788;2023-02-23T11:22:20;8.20;99.90
41928;DHT22;27616;51.420;6.788;2023-02-23T11:24:48;8.20;99.90
41928;DHT22;27616;51.420;6.788;2023-02-23T11:27:23;8.40;99.90
41928;DHT22;27616;51.420;6.788;2023-02-23T11:29:51;8.50;99.90
41928;DHT22;27616;51.420;6.788;2023-02-23T11:32:30;8.50;99.90
41928;DHT22;27616;51.420;6.788;2023-02-23T11:37:37;8.60;99.90
41928;DHT22;27616;51.420;6.788;2023-02-23T11:40:23;8.60;99.90
41928;DHT22;27616;51.420;6.788;2023-02-23T11:42:57;8.70;99.90
41928;DHT22;27616;51.420;6.788;2023-02-23T11:48:20;8.80;99.90
41928;DHT22;27616;51.420;6.788;2023-02-23T11:50:48;8.90;99.90
41928;DHT22;27616;51.420;6.788;2023-02-23T11:53:17;9.00;99.90
41928;DHT22;27616;51.420;6.788;2023-02-23T11:55:52;8.90;99.90
41928;DHT22;27616;51.420;6.788;2023-02-23T12:01:06;8.80;99.90
41928;DHT22;27616;51.420;6.788;2023-02-23T12:03:44;8.70;99.90
41928;DHT22;27616;51.420;6.788;2023-02-23T12:06:15;8.80;99.90
41928;DHT22;27616;51.420;6.788;2023-02-23T12:08:52;8.80;99.90
41928;DHT22;27616;51.420;6.788;2023-02-23T12:11:25;8.70;99.90
41928;DHT22;27616;51.420;6.788;2023-02-23T12:14:04;8.60;99.90
41928;DHT22;27616;51.420;6.788;2023-02-23T12:16:37;8.60;99.90
41928;DHT22;27616;51.420;6.788;2023-02-23T12:19:17;8.70;99.90
41928;DHT22;27616;51.420;6.788;2023-02-23T12:22:35;8.60;99.90
41928;DHT22;27616;51.420;6.788;2023-02-23T12:27:15;8.70;99.90
41928;DHT22;27616;51.420;6.788;2023-02-23T12:32:33;8.60;99.90
41928;DHT22;27616;51.420;6.788;2023-02-23T12:37:46;8.60;99.90
41928;DHT22;27616;51.420;6.788;2023-02-23T12:40:22;8.60;99.90
41928;DHT22;27616;51.420;6.788;2023-02-23T12:43:06;8.60;99.90
41928;DHT22;27616;51.420;6.788;2023-02-23T12:45:51;8.70;99.90
41928;DHT22;27616;51.420;6.788;2023-02-23T12:50:58;8.60;99.90
41928;DHT22;27616;51.420;6.788;2023-02-23T12:53:40;8.70;99.90
41928;DHT22;27616;51.420;6.788;2023-02-23T13:12:52;8.90;99.90
41928;DHT22;27616;51.420;6.788;2023-02-23T13:15:49;8.90;99.90
41928;DHT22;27616;51.420;6.788;2023-02-23T13:18:31;9.00;99.90
41928;DHT22;27616;51.420;6.788;2023-02-23T13:21:19;9.00;99.90
41928;DHT22;27616;51.420;6.788;2023-02-23T13:24:09;8.90;99.90
41928;DHT22;27616;51.420;6.788;2023-02-23T13:27:04;9.00;99.90
41928;DHT22;27616;51.420;6.788;2023-02-23T13:29:45;9.00;99.90
41928;DHT22;27616;51.420;6.788;2023-02-23T13:32:16;9.00;99.90
41928;DHT22;27616;51.420;6.788;2023-02-23T13:34:56;9.00;99.90
41928;DHT22;27616;51.420;6.788;2023-02-23T13:37:40;9.00;99.90
41928;DHT22;27616;51.420;6.788;2023-02-23T13:40:14;9.00;99.90
41928;DHT22;27616;51.420;6.788;2023-02-23T13:53:59;8.90;99.90
41928;DHT22;27616;51.420;6.788;2023-02-23T13:56:27;8.90;99.90
41928;DHT22;27616;51.420;6.788;2023-02-23T13:59:05;8.90;99.90
41928;DHT22;27616;51.420;6.788;2023-02-23T14:01:43;9.00;99.90
41928;DHT22;27616;51.420;6.788;2023-02-23T14:04:14;8.90;99.90
41928;DHT22;27616;51.420;6.788;2023-02-23T14:07:15;9.00;99.90
41928;DHT22;27616;51.420;6.788;2023-02-23T14:09:40;9.00;99.90
41928;DHT22;27616;51.420;6.788;2023-02-23T14:12:37;8.90;99.90
41928;DHT22;27616;51.420;6.788;2023-02-23T14:15:39;8.90;99.90
41928;DHT22;27616;51.420;6.788;2023-02-23T14:23:49;8.70;99.90
41928;DHT22;27616;51.420;6.788;2023-02-23T14:34:54;8.70;99.90
41928;DHT22;27616;51.420;6.788;2023-02-23T14:37:33;8.70;99.90
41928;DHT22;27616;51.420;6.788;2023-02-23T14:40:06;8.70;99.90
41928;DHT22;27616;51.420;6.788;2023-02-23T14:42:37;8.60;99.90
41928;DHT22;27616;51.420;6.788;2023-02-23T14:45:51;8.60;99.90
41928;DHT22;27616;51.420;6.788;2023-02-23T14:48:06;8.50;99.90
41928;DHT22;27616;51.420;6.788;2023-02-23T14:50:35;8.50;99.90
41928;DHT22;27616;51.420;6.788;2023-02-23T14:53:03;8.50;99.90
41928;DHT22;27616;51.420;6.788;2023-02-23T14:55:32;8.50;99.90
41928;DHT22;27616;51.420;6.788;2023-02-23T14:58:02;8.50;99.90
41928;DHT22;27616;51.420;6.788;2023-02-23T15:00:31;8.40;99.90
41928;DHT22;27616;51.420;6.788;2023-02-23T15:03:05;8.50;99.90
41928;DHT22;27616;51.420;6.788;2023-02-23T15:05:59;8.60;99.90
41928;DHT22;27616;51.420;6.788;2023-02-23T15:08:27;8.60;99.90
41928;DHT22;27616;51.420;6.788;2023-02-23T15:13:30;8.60;99.90
41928;DHT22;27616;51.420;6.788;2023-02-23T15:16:02;8.60;99.90
41928;DHT22;27616;51.420;6.788;2023-02-23T15:21:57;8.60;99.90
41928;DHT22;27616;51.420;6.788;2023-02-23T15:24:31;8.70;99.90
41928;DHT22;27616;51.420;6.788;2023-02-23T15:26:57;8.70;99.90
41928;DHT22;27616;51.420;6.788;2023-02-23T15:29:32;8.70;99.90
41928;DHT22;27616;51.420;6.788;2023-02-23T15:32:17;8.60;99.90
41928;DHT22;27616;51.420;6.788;2023-02-23T15:34:43;8.60;99.90
41928;DHT22;27616;51.420;6.788;2023-02-23T15:37:33;8.60;99.90
41928;DHT22;27616;51.420;6.788;2023-02-23T15:40:03;8.50;99.90
41928;DHT22;27616;51.420;6.788;2023-02-23T15:42:50;8.50;99.90
41928;DHT22;27616;51.420;6.788;2023-02-23T15:45:31;8.50;99.90
41928;DHT22;27616;51.420;6.788;2023-02-23T15:48:09;8.50;99.90
41928;DHT22;27616;51.420;6.788;2023-02-23T15:50:41;8.50;99.90
41928;DHT22;27616;51.420;6.788;2023-02-23T15:55:57;8.50;99.90
41928;DHT22;27616;51.420;6.788;2023-02-23T15:58:36;8.50;99.90
41928;DHT22;27616;51.420;6.788;2023-02-23T16:01:11;8.50;99.90
41928;DHT22;27616;51.420;6.788;2023-02-23T16:03:45;8.50;99.90
41928;DHT22;27616;51.420;6.788;2023-02-23T16:06:23;8.50;99.90
41928;DHT22;27616;51.420;6.788;2023-02-23T16:08:57;8.50;99.90
41928;DHT22;27616;51.420;6.788;2023-02-23T16:11:24;8.50;99.90
41928;DHT22;27616;51.420;6.788;2023-02-23T16:13:51;8.50;99.90
41928;DHT22;27616;51.420;6.788;2023-02-23T16:16:19;8.50;99.90
41928;DHT22;27616;51.420;6.788;2023-02-23T16:18:55;8.50;99.90
41928;DHT22;27616;51.420;6.788;2023-02-23T16:21:28;8.50;99.90
41928;DHT22;27616;51.420;6.788;2023-02-23T16:23:58;8.50;99.90
41928;DHT22;27616;51.420;6.788;2023-02-23T16:26:44;8.50;99.90
41928;DHT22;27616;51.420;6.788;2023-02-23T16:29:14;8.50;99.90
41928;DHT22;27616;51.420;6.788;2023-02-23T16:31:45;8.50;99.90
41928;DHT22;27616;51.420;6.788;2023-02-23T16:34:47;8.50;99.90
41928;DHT22;27616;51.420;6.788;2023-02-23T16:37:16;8.50;99.90
41928;DHT22;27616;51.420;6.788;2023-02-23T16:39:47;8.40;99.90
41928;DHT22;27616;51.420;6.788;2023-02-23T16:42:32;8.40;99.90
41928;DHT22;27616;51.420;6.788;2023-02-23T16:44:58;8.40;99.90
41928;DHT22;27616;51.420;6.788;2023-02-23T16:47:34;8.40;99.90
41928;DHT22;27616;51.420;6.788;2023-02-23T16:50:15;8.30;99.90
41928;DHT22;27616;51.420;6.788;2023-02-23T16:52:43;8.30;99.90
41928;DHT22;27616;51.420;6.788;2023-02-23T16:55:15;8.30;99.90
41928;DHT22;27616;51.420;6.788;2023-02-23T16:57:42;8.20;99.90
41928;DHT22;27616;51.420;6.788;2023-02-23T17:00:11;8.20;99.90
41928;DHT22;27616;51.420;6.788;2023-02-23T17:02:45;8.10;99.90
41928;DHT22;27616;51.420;6.788;2023-02-23T17:05:18;8.20;99.90
41928;DHT22;27616;51.420;6.788;2023-02-23T17:07:45;8.20;99.90
41928;DHT22;27616;51.420;6.788;2023-02-23T17:10:25;8.10;99.90
41928;DHT22;27616;51.420;6.788;2023-02-23T17:13:02;8.10;99.90
41928;DHT22;27616;51.420;6.788;2023-02-23T17:15:35;8.20;99.90
41928;DHT22;27616;51.420;6.788;2023-02-23T17:18:02;8.20;99.90
41928;DHT22;27616;51.420;6.788;2023-02-23T17:20:28;8.10;99.90
41928;DHT22;27616;51.420;6.788;2023-02-23T17:22:56;8.10;99.90
41928;DHT22;27616;51.420;6.788;2023-02-23T17:25:23;8.10;99.90
41928;DHT22;27616;51.420;6.788;2023-02-23T17:27:52;8.10;99.90
41928;DHT22;27616;51.420;6.788;2023-02-23T17:30:18;8.20;99.90
41928;DHT22;27616;51.420;6.788;2023-02-23T17:32:45;8.20;99.90
41928;DHT22;27616;51.420;6.788;2023-02-23T17:35:11;8.10;99.90
41928;DHT22;27616;51.420;6.788;2023-02-23T17:37:37;8.10;99.90
41928;DHT22;27616;51.420;6.788;2023-02-23T17:40:10;8.10;99.90
41928;DHT22;27616;51.420;6.788;2023-02-23T17:42:36;8.00;99.90
41928;DHT22;27616;51.420;6.788;2023-02-23T17:45:04;8.00;99.90
41928;DHT22;27616;51.420;6.788;2023-02-23T17:47:31;8.00;99.90
41928;DHT22;27616;51.420;6.788;2023-02-23T17:49:58;8.00;99.90
41928;DHT22;27616;51.420;6.788;2023-02-23T17:52:24;7.90;99.90
41928;DHT22;27616;51.420;6.788;2023-02-23T17:54:50;7.90;99.90
41928;DHT22;27616;51.420;6.788;2023-02-23T17:57:16;7.90;99.90
41928;DHT22;27616;51.420;6.788;2023-02-23T17:59:42;7.80;99.90
41928;DHT22;27616;51.420;6.788;2023-02-23T18:02:13;7.80;99.90
41928;DHT22;27616;51.420;6.788;2023-02-23T18:04:39;7.90;99.90
41928;DHT22;27616;51.420;6.788;2023-02-23T18:07:06;7.80;99.90
41928;DHT22;27616;51.420;6.788;2023-02-23T18:09:32;7.90;99.90
41928;DHT22;27616;51.420;6.788;2023-02-23T18:11:57;7.90;99.90
41928;DHT22;27616;51.420;6.788;2023-02-23T18:14:23;7.90;99.90
41928;DHT22;27616;51.420;6.788;2023-02-23T18:16:49;7.80;99.90
41928;DHT22;27616;51.420;6.788;2023-02-23T18:19:14;7.80;99.90
41928;DHT22;27616;51.420;6.788;2023-02-23T18:21:40;7.80;99.90